sensor_id;sensor_type;location;lat;lon;timestamp;P1;durP1;ratioP1;P2;durP2;ratioP2
76576;SDS011;65441;44.748;37.600;2023-04-01T00:01:29;3.15;;;1.10;;
76576;SDS011;65441;44.748;37.600;2023-04-01T00:03:58;2.95;;;0.82;;
76576;SDS011;65441;44.748;37.600;2023-04-01T00:06:28;3.13;;;0.80;;
76576;SDS011;65441;44.748;37.600;2023-04-01T00:08:59;2.33;;;0.70;;
76576;SDS011;65441;44.748;37.600;2023-04-01T00:11:28;5.50;;;1.20;;
76576;SDS011;65441;44.748;37.600;2023-04-01T00:13:57;2.15;;;0.77;;
76576;SDS011;65441;44.748;37.600;2023-04-01T00:16:26;2.70;;;0.63;;
76576;SDS011;65441;44.748;37.600;2023-04-01T00:18:55;1.50;;;0.50;;
76576;SDS011;65441;44.748;37.600;2023-04-01T00:21:24;4.07;;;1.17;;
76576;SDS011;65441;44.748;37.600;2023-04-01T00:23:53;3.10;;;0.90;;
76576;SDS011;65441;44.748;37.600;2023-04-01T00:26:23;2.83;;;0.85;;
76576;SDS011;65441;44.748;37.600;2023-04-01T00:28:52;4.05;;;0.93;;
76576;SDS011;65441;44.748;37.600;2023-04-01T00:31:21;2.53;;;0.90;;
76576;SDS011;65441;44.748;37.600;2023-04-01T00:33:51;3.15;;;0.88;;
76576;SDS011;65441;44.748;37.600;2023-04-01T00:36:20;6.45;;;1.02;;
76576;SDS011;65441;44.748;37.600;2023-04-01T00:38:50;1.30;;;0.60;;
76576;SDS011;65441;44.748;37.600;2023-04-01T00:41:20;2.72;;;0.80;;
76576;SDS011;65441;44.748;37.600;2023-04-01T00:43:50;1.95;;;0.82;;
76576;SDS011;65441;44.748;37.600;2023-04-01T00:46:20;1.83;;;0.70;;
76576;SDS011;65441;44.748;37.600;2023-04-01T00:48:50;3.65;;;0.90;;
76576;SDS011;65441;44.748;37.600;2023-04-01T00:51:22;3.42;;;1.00;;
76576;SDS011;65441;44.748;37.600;2023-04-01T00:53:56;3.53;;;0.88;;
76576;SDS011;65441;44.748;37.600;2023-04-01T00:56:30;3.40;;;0.70;;
76576;SDS011;65441;44.748;37.600;2023-04-01T00:59:02;6.28;;;1.17;;
76576;SDS011;65441;44.748;37.600;2023-04-01T01:01:35;3.97;;;1.00;;
76576;SDS011;65441;44.748;37.600;2023-04-01T01:04:04;3.17;;;0.80;;
76576;SDS011;65441;44.748;37.600;2023-04-01T01:06:37;1.77;;;0.68;;
76576;SDS011;65441;44.748;37.600;2023-04-01T01:09:21;1.40;;;0.60;;
76576;SDS011;65441;44.748;37.600;2023-04-01T01:11:58;2.28;;;0.90;;
76576;SDS011;65441;44.748;37.600;2023-04-01T01:14:39;1.92;;;0.60;;
76576;SDS011;65441;44.748;37.600;2023-04-01T01:17:18;1.75;;;0.70;;
76576;SDS011;65441;44.748;37.600;2023-04-01T01:19:59;5.30;;;0.82;;
76576;SDS011;65441;44.748;37.600;2023-04-01T01:22:46;5.07;;;1.00;;
76576;SDS011;65441;44.748;37.600;2023-04-01T01:25:31;3.30;;;0.90;;
76576;SDS011;65441;44.748;37.600;2023-04-01T01:28:15;3.28;;;0.90;;
76576;SDS011;65441;44.748;37.600;2023-04-01T01:30:57;1.42;;;0.55;;
76576;SDS011;65441;44.748;37.600;2023-04-01T01:33:47;3.22;;;0.70;;
76576;SDS011;65441;44.748;37.600;2023-04-01T01:36:32;1.05;;;0.40;;
76576;SDS011;65441;44.748;37.600;2023-04-01T01:39:04;2.35;;;0.60;;
76576;SDS011;65441;44.748;37.600;2023-04-01T01:41:35;2.08;;;0.60;;
76576;SDS011;65441;44.748;37.600;2023-04-01T01:44:09;3.17;;;0.80;;
76576;SDS011;65441;44.748;37.600;2023-04-01T01:46:41;3.67;;;0.80;;
76576;SDS011;65441;44.748;37.600;2023-04-01T01:49:11;4.07;;;0.98;;
76576;SDS011;65441;44.748;37.600;2023-04-01T01:51:44;5.60;;;0.95;;
76576;SDS011;65441;44.748;37.600;2023-04-01T01:54:14;2.83;;;0.70;;
76576;SDS011;65441;44.748;37.600;2023-04-01T01:56:44;3.08;;;1.00;;
76576;SDS011;65441;44.748;37.600;2023-04-01T01:59:17;4.45;;;1.00;;
76576;SDS011;65441;44.748;37.600;2023-04-01T02:01:49;3.20;;;0.90;;
76576;SDS011;65441;44.748;37.600;2023-04-01T02:04:20;3.50;;;0.80;;
76576;SDS011;65441;44.748;37.600;2023-04-01T02:06:53;2.83;;;0.70;;
76576;SDS011;65441;44.748;37.600;2023-04-01T02:09:26;2.70;;;0.70;;
76576;SDS011;65441;44.748;37.600;2023-04-01T02:11:57;3.72;;;0.95;;
76576;SDS011;65441;44.748;37.600;2023-04-01T02:14:34;4.60;;;0.95;;
76576;SDS011;65441;44.748;37.600;2023-04-01T02:17:09;3.22;;;0.88;;
76576;SDS011;65441;44.748;37.600;2023-04-01T02:19:43;3.65;;;1.15;;
76576;SDS011;65441;44.748;37.600;2023-04-01T02:22:18;3.22;;;0.90;;
76576;SDS011;65441;44.748;37.600;2023-04-01T02:24:50;2.88;;;0.88;;
76576;SDS011;65441;44.748;37.600;2023-04-01T02:27:23;2.90;;;0.80;;
76576;SDS011;65441;44.748;37.600;2023-04-01T02:29:52;2.55;;;0.98;;
76576;SDS011;65441;44.748;37.600;2023-04-01T02:32:21;3.47;;;0.90;;
76576;SDS011;65441;44.748;37.600;2023-04-01T02:34:51;4.10;;;0.90;;
76576;SDS011;65441;44.748;37.600;2023-04-01T02:37:21;3.15;;;0.95;;
76576;SDS011;65441;44.748;37.600;2023-04-01T02:39:51;4.18;;;0.95;;
76576;SDS011;65441;44.748;37.600;2023-04-01T02:42:20;3.28;;;0.93;;
76576;SDS011;65441;44.748;37.600;2023-04-01T02:44:49;3.08;;;1.30;;
76576;SDS011;65441;44.748;37.600;2023-04-01T02:47:18;4.32;;;1.00;;
76576;SDS011;65441;44.748;37.600;2023-04-01T02:49:47;4.30;;;1.42;;
76576;SDS011;65441;44.748;37.600;2023-04-01T02:52:16;7.20;;;1.10;;
76576;SDS011;65441;44.748;37.600;2023-04-01T02:54:47;4.22;;;1.00;;
76576;SDS011;65441;44.748;37.600;2023-04-01T02:57:15;4.07;;;1.17;;
76576;SDS011;65441;44.748;37.600;2023-04-01T02:59:44;3.90;;;1.20;;
76576;SDS011;65441;44.748;37.600;2023-04-01T03:02:13;2.95;;;1.00;;
76576;SDS011;65441;44.748;37.600;2023-04-01T03:04:43;3.97;;;0.82;;
76576;SDS011;65441;44.748;37.600;2023-04-01T03:07:12;3.13;;;1.10;;
76576;SDS011;65441;44.748;37.600;2023-04-01T03:09:41;3.92;;;0.90;;
76576;SDS011;65441;44.748;37.600;2023-04-01T03:12:12;6.85;;;1.13;;
76576;SDS011;65441;44.748;37.600;2023-04-01T03:14:50;3.63;;;0.98;;
76576;SDS011;65441;44.748;37.600;2023-04-01T03:17:19;2.38;;;0.85;;
76576;SDS011;65441;44.748;37.600;2023-04-01T03:19:48;2.78;;;0.90;;
76576;SDS011;65441;44.748;37.600;2023-04-01T03:22:17;3.70;;;0.80;;
76576;SDS011;65441;44.748;37.600;2023-04-01T03:24:47;3.38;;;1.00;;
76576;SDS011;65441;44.748;37.600;2023-04-01T03:27:19;6.07;;;0.90;;
76576;SDS011;65441;44.748;37.600;2023-04-01T03:29:48;3.95;;;1.08;;
76576;SDS011;65441;44.748;37.600;2023-04-01T03:32:17;4.20;;;0.95;;
76576;SDS011;65441;44.748;37.600;2023-04-01T03:34:46;3.92;;;0.98;;
76576;SDS011;65441;44.748;37.600;2023-04-01T03:37:15;3.30;;;0.80;;
76576;SDS011;65441;44.748;37.600;2023-04-01T03:39:44;4.72;;;0.82;;
76576;SDS011;65441;44.748;37.600;2023-04-01T03:42:13;3.08;;;1.02;;
76576;SDS011;65441;44.748;37.600;2023-04-01T03:44:44;2.38;;;0.73;;
76576;SDS011;65441;44.748;37.600;2023-04-01T03:47:17;5.97;;;1.30;;
76576;SDS011;65441;44.748;37.600;2023-04-01T03:49:50;2.38;;;0.70;;
76576;SDS011;65441;44.748;37.600;2023-04-01T03:52:20;4.47;;;1.23;;
76576;SDS011;65441;44.748;37.600;2023-04-01T03:54:54;3.08;;;0.75;;
76576;SDS011;65441;44.748;37.600;2023-04-01T03:57:27;3.38;;;0.90;;
76576;SDS011;65441;44.748;37.600;2023-04-01T04:00:01;0.93;;;0.32;;
76576;SDS011;65441;44.748;37.600;2023-04-01T04:02:40;3.15;;;0.70;;
76576;SDS011;65441;44.748;37.600;2023-04-01T04:05:14;2.08;;;0.70;;
76576;SDS011;65441;44.748;37.600;2023-04-01T04:07:43;7.57;;;0.90;;
76576;SDS011;65441;44.748;37.600;2023-04-01T04:10:13;3.90;;;0.50;;
76576;SDS011;65441;44.748;37.600;2023-04-01T04:12:42;4.57;;;0.70;;
76576;SDS011;65441;44.748;37.600;2023-04-01T04:15:13;4.57;;;0.90;;
76576;SDS011;65441;44.748;37.600;2023-04-01T04:17:43;4.00;;;0.90;;
76576;SDS011;65441;44.748;37.600;2023-04-01T04:20:14;3.13;;;0.80;;
76576;SDS011;65441;44.748;37.600;2023-04-01T04:22:43;5.57;;;1.10;;
76576;SDS011;65441;44.748;37.600;2023-04-01T04:25:12;2.40;;;0.80;;
76576;SDS011;65441;44.748;37.600;2023-04-01T04:27:41;3.03;;;0.50;;
76576;SDS011;65441;44.748;37.600;2023-04-01T04:30:14;1.90;;;0.70;;
76576;SDS011;65441;44.748;37.600;2023-04-01T04:32:43;2.00;;;0.50;;
76576;SDS011;65441;44.748;37.600;2023-04-01T04:35:13;3.42;;;0.80;;
76576;SDS011;65441;44.748;37.600;2023-04-01T04:37:42;5.45;;;1.10;;
76576;SDS011;65441;44.748;37.600;2023-04-01T04:40:11;3.00;;;0.80;;
76576;SDS011;65441;44.748;37.600;2023-04-01T04:42:40;3.65;;;1.02;;
76576;SDS011;65441;44.748;37.600;2023-04-01T04:45:14;3.90;;;0.85;;
76576;SDS011;65441;44.748;37.600;2023-04-01T04:47:52;3.03;;;0.80;;
76576;SDS011;65441;44.748;37.600;2023-04-01T04:50:20;4.45;;;1.00;;
76576;SDS011;65441;44.748;37.600;2023-04-01T04:52:50;8.38;;;0.90;;
76576;SDS011;65441;44.748;37.600;2023-04-01T04:55:20;5.72;;;1.83;;
76576;SDS011;65441;44.748;37.600;2023-04-01T04:57:59;2.30;;;0.73;;
76576;SDS011;65441;44.748;37.600;2023-04-01T05:00:29;1.95;;;0.60;;
76576;SDS011;65441;44.748;37.600;2023-04-01T05:03:01;2.38;;;0.80;;
76576;SDS011;65441;44.748;37.600;2023-04-01T05:05:30;4.00;;;0.70;;
76576;SDS011;65441;44.748;37.600;2023-04-01T05:07:59;2.30;;;0.60;;
76576;SDS011;65441;44.748;37.600;2023-04-01T05:10:28;3.22;;;0.70;;
76576;SDS011;65441;44.748;37.600;2023-04-01T05:12:58;3.08;;;0.90;;
76576;SDS011;65441;44.748;37.600;2023-04-01T05:15:26;5.43;;;0.85;;
76576;SDS011;65441;44.748;37.600;2023-04-01T05:17:57;4.25;;;0.57;;
76576;SDS011;65441;44.748;37.600;2023-04-01T05:20:26;1.88;;;0.60;;
76576;SDS011;65441;44.748;37.600;2023-04-01T05:22:55;1.73;;;0.50;;
76576;SDS011;65441;44.748;37.600;2023-04-01T05:25:25;2.08;;;0.55;;
76576;SDS011;65441;44.748;37.600;2023-04-01T05:27:55;7.90;;;2.00;;
76576;SDS011;65441;44.748;37.600;2023-04-01T05:30:24;5.18;;;1.00;;
76576;SDS011;65441;44.748;37.600;2023-04-01T05:33:02;3.65;;;0.70;;
76576;SDS011;65441;44.748;37.600;2023-04-01T05:35:31;1.42;;;0.57;;
76576;SDS011;65441;44.748;37.600;2023-04-01T05:38:00;2.65;;;0.60;;
76576;SDS011;65441;44.748;37.600;2023-04-01T05:40:29;3.38;;;0.60;;
76576;SDS011;65441;44.748;37.600;2023-04-01T05:42:59;4.40;;;0.90;;
76576;SDS011;65441;44.748;37.600;2023-04-01T05:45:28;2.33;;;0.43;;
76576;SDS011;65441;44.748;37.600;2023-04-01T05:48:00;4.35;;;0.98;;
76576;SDS011;65441;44.748;37.600;2023-04-01T05:50:36;2.55;;;0.70;;
76576;SDS011;65441;44.748;37.600;2023-04-01T05:53:07;4.78;;;1.00;;
76576;SDS011;65441;44.748;37.600;2023-04-01T05:55:37;4.70;;;1.10;;
76576;SDS011;65441;44.748;37.600;2023-04-01T05:58:06;2.88;;;0.98;;
76576;SDS011;65441;44.748;37.600;2023-04-01T06:00:37;3.60;;;0.82;;
76576;SDS011;65441;44.748;37.600;2023-04-01T06:03:07;3.30;;;0.90;;
76576;SDS011;65441;44.748;37.600;2023-04-01T06:05:38;2.13;;;0.55;;
76576;SDS011;65441;44.748;37.600;2023-04-01T06:08:10;3.17;;;0.95;;
76576;SDS011;65441;44.748;37.600;2023-04-01T06:10:43;4.43;;;0.88;;
76576;SDS011;65441;44.748;37.600;2023-04-01T06:13:25;1.48;;;0.60;;
76576;SDS011;65441;44.748;37.600;2023-04-01T06:16:04;4.03;;;0.60;;
76576;SDS011;65441;44.748;37.600;2023-04-01T06:21:43;3.58;;;1.00;;
76576;SDS011;65441;44.748;37.600;2023-04-01T06:24:48;2.25;;;0.50;;
76576;SDS011;65441;44.748;37.600;2023-04-01T06:27:42;2.88;;;0.90;;
76576;SDS011;65441;44.748;37.600;2023-04-01T06:33:05;2.72;;;0.75;;
76576;SDS011;65441;44.748;37.600;2023-04-01T06:35:54;3.67;;;0.60;;
76576;SDS011;65441;44.748;37.600;2023-04-01T06:38:42;2.05;;;0.47;;
76576;SDS011;65441;44.748;37.600;2023-04-01T06:41:32;1.70;;;0.60;;
76576;SDS011;65441;44.748;37.600;2023-04-01T06:44:31;3.33;;;0.73;;
76576;SDS011;65441;44.748;37.600;2023-04-01T06:47:30;2.67;;;0.55;;
76576;SDS011;65441;44.748;37.600;2023-04-01T06:50:48;2.42;;;0.60;;
76576;SDS011;65441;44.748;37.600;2023-04-01T06:53:46;2.97;;;0.50;;
76576;SDS011;65441;44.748;37.600;2023-04-01T06:56:41;4.03;;;0.88;;
76576;SDS011;65441;44.748;37.600;2023-04-01T06:59:20;3.20;;;0.70;;
76576;SDS011;65441;44.748;37.600;2023-04-01T07:01:53;5.07;;;0.90;;
76576;SDS011;65441;44.748;37.600;2023-04-01T07:04:26;5.72;;;0.80;;
76576;SDS011;65441;44.748;37.600;2023-04-01T07:07:01;3.08;;;0.65;;
76576;SDS011;65441;44.748;37.600;2023-04-01T07:09:38;1.77;;;0.60;;
76576;SDS011;65441;44.748;37.600;2023-04-01T07:12:32;1.80;;;0.60;;
76576;SDS011;65441;44.748;37.600;2023-04-01T07:15:36;4.15;;;0.75;;
76576;SDS011;65441;44.748;37.600;2023-04-01T07:18:11;3.60;;;1.10;;
76576;SDS011;65441;44.748;37.600;2023-04-01T07:23:17;7.45;;;1.10;;
76576;SDS011;65441;44.748;37.600;2023-04-01T07:25:58;3.15;;;0.73;;
76576;SDS011;65441;44.748;37.600;2023-04-01T07:28:29;1.65;;;0.60;;
76576;SDS011;65441;44.748;37.600;2023-04-01T07:31:25;4.03;;;0.95;;
76576;SDS011;65441;44.748;37.600;2023-04-01T07:34:05;2.95;;;0.68;;
76576;SDS011;65441;44.748;37.600;2023-04-01T07:36:42;2.78;;;0.60;;
76576;SDS011;65441;44.748;37.600;2023-04-01T07:39:21;5.70;;;0.77;;
76576;SDS011;65441;44.748;37.600;2023-04-01T07:45:05;2.15;;;0.70;;
76576;SDS011;65441;44.748;37.600;2023-04-01T07:47:50;2.92;;;0.80;;
76576;SDS011;65441;44.748;37.600;2023-04-01T07:50:32;6.15;;;1.23;;
76576;SDS011;65441;44.748;37.600;2023-04-01T07:53:09;2.17;;;0.70;;
76576;SDS011;65441;44.748;37.600;2023-04-01T07:55:45;3.70;;;1.35;;
76576;SDS011;65441;44.748;37.600;2023-04-01T07:58:19;3.33;;;0.70;;
76576;SDS011;65441;44.748;37.600;2023-04-01T08:00:56;4.93;;;0.77;;
76576;SDS011;65441;44.748;37.600;2023-04-01T08:03:41;2.40;;;0.70;;
76576;SDS011;65441;44.748;37.600;2023-04-01T08:06:24;5.90;;;1.05;;
76576;SDS011;65441;44.748;37.600;2023-04-01T08:08:59;2.75;;;0.80;;
76576;SDS011;65441;44.748;37.600;2023-04-01T08:11:57;2.67;;;0.65;;
76576;SDS011;65441;44.748;37.600;2023-04-01T08:14:52;5.78;;;1.05;;
76576;SDS011;65441;44.748;37.600;2023-04-01T08:20:28;3.25;;;0.70;;
76576;SDS011;65441;44.748;37.600;2023-04-01T08:23:04;2.10;;;0.70;;
76576;SDS011;65441;44.748;37.600;2023-04-01T08:25:43;4.75;;;1.00;;
76576;SDS011;65441;44.748;37.600;2023-04-01T08:28:19;5.20;;;1.55;;
76576;SDS011;65441;44.748;37.600;2023-04-01T08:30:53;12.13;;;5.40;;
76576;SDS011;65441;44.748;37.600;2023-04-01T08:33:27;4.18;;;0.95;;
76576;SDS011;65441;44.748;37.600;2023-04-01T08:36:10;4.50;;;1.00;;
76576;SDS011;65441;44.748;37.600;2023-04-01T08:38:46;4.25;;;0.90;;
76576;SDS011;65441;44.748;37.600;2023-04-01T08:41:24;2.38;;;0.82;;
76576;SDS011;65441;44.748;37.600;2023-04-01T08:44:37;1.50;;;0.70;;
76576;SDS011;65441;44.748;37.600;2023-04-01T08:47:42;3.50;;;0.75;;
76576;SDS011;65441;44.748;37.600;2023-04-01T08:53:27;1.98;;;0.77;;
76576;SDS011;65441;44.748;37.600;2023-04-01T08:56:20;3.30;;;0.70;;
76576;SDS011;65441;44.748;37.600;2023-04-01T09:02:16;2.40;;;0.60;;
76576;SDS011;65441;44.748;37.600;2023-04-01T09:08:18;2.50;;;0.60;;
76576;SDS011;65441;44.748;37.600;2023-04-01T09:11:05;4.25;;;0.82;;
76576;SDS011;65441;44.748;37.600;2023-04-01T09:14:03;3.17;;;0.80;;
76576;SDS011;65441;44.748;37.600;2023-04-01T09:17:00;3.63;;;0.90;;
76576;SDS011;65441;44.748;37.600;2023-04-01T09:19:56;3.20;;;0.90;;
76576;SDS011;65441;44.748;37.600;2023-04-01T09:22:40;3.63;;;0.80;;
76576;SDS011;65441;44.748;37.600;2023-04-01T09:25:29;4.32;;;0.88;;
76576;SDS011;65441;44.748;37.600;2023-04-01T09:28:17;1.88;;;0.82;;
76576;SDS011;65441;44.748;37.600;2023-04-01T09:30:53;1.80;;;0.60;;
76576;SDS011;65441;44.748;37.600;2023-04-01T09:37:00;2.15;;;0.60;;
76576;SDS011;65441;44.748;37.600;2023-04-01T09:39:47;4.38;;;0.70;;
76576;SDS011;65441;44.748;37.600;2023-04-01T09:42:42;3.50;;;0.80;;
76576;SDS011;65441;44.748;37.600;2023-04-01T09:45:29;2.72;;;0.65;;
76576;SDS011;65441;44.748;37.600;2023-04-01T09:48:14;4.57;;;0.77;;
76576;SDS011;65441;44.748;37.600;2023-04-01T09:50:52;2.47;;;1.08;;
76576;SDS011;65441;44.748;37.600;2023-04-01T09:59:49;4.22;;;0.90;;
76576;SDS011;65441;44.748;37.600;2023-04-01T10:15:46;5.10;;;0.75;;
76576;SDS011;65441;44.748;37.600;2023-04-01T10:21:53;2.15;;;0.60;;
76576;SDS011;65441;44.748;37.600;2023-04-01T10:24:56;4.97;;;1.00;;
76576;SDS011;65441;44.748;37.600;2023-04-01T10:31:24;5.72;;;0.63;;
76576;SDS011;65441;44.748;37.600;2023-04-01T10:37:26;3.63;;;0.77;;
76576;SDS011;65441;44.748;37.600;2023-04-01T10:40:38;5.88;;;0.80;;
76576;SDS011;65441;44.748;37.600;2023-04-01T10:50:25;2.55;;;0.32;;
76576;SDS011;65441;44.748;37.600;2023-04-01T10:53:37;2.90;;;0.75;;
76576;SDS011;65441;44.748;37.600;2023-04-01T10:56:40;3.83;;;0.43;;
76576;SDS011;65441;44.748;37.600;2023-04-01T11:21:43;2.38;;;0.50;;
76576;SDS011;65441;44.748;37.600;2023-04-01T11:24:40;2.13;;;0.70;;
76576;SDS011;65441;44.748;37.600;2023-04-01T11:27:50;4.47;;;0.70;;
76576;SDS011;65441;44.748;37.600;2023-04-01T11:30:39;1.88;;;0.70;;
76576;SDS011;65441;44.748;37.600;2023-04-01T11:33:16;3.05;;;0.70;;
76576;SDS011;65441;44.748;37.600;2023-04-01T11:35:55;2.10;;;0.30;;
76576;SDS011;65441;44.748;37.600;2023-04-01T11:38:44;4.55;;;0.80;;
76576;SDS011;65441;44.748;37.600;2023-04-01T11:41:44;1.52;;;0.40;;
76576;SDS011;65441;44.748;37.600;2023-04-01T11:44:37;2.35;;;0.35;;
76576;SDS011;65441;44.748;37.600;2023-04-01T11:50:21;2.40;;;0.65;;
76576;SDS011;65441;44.748;37.600;2023-04-01T11:55:53;3.95;;;0.73;;
76576;SDS011;65441;44.748;37.600;2023-04-01T11:58:31;3.22;;;0.40;;
76576;SDS011;65441;44.748;37.600;2023-04-01T12:01:30;6.43;;;0.70;;
76576;SDS011;65441;44.748;37.600;2023-04-01T12:04:23;1.02;;;0.47;;
76576;SDS011;65441;44.748;37.600;2023-04-01T12:07:13;2.80;;;0.60;;
76576;SDS011;65441;44.748;37.600;2023-04-01T12:09:52;4.10;;;0.60;;
76576;SDS011;65441;44.748;37.600;2023-04-01T12:12:35;1.63;;;0.60;;
76576;SDS011;65441;44.748;37.600;2023-04-01T12:15:14;2.45;;;0.93;;
76576;SDS011;65441;44.748;37.600;2023-04-01T12:17:50;0.77;;;0.20;;
76576;SDS011;65441;44.748;37.600;2023-04-01T12:20:28;1.88;;;0.40;;
76576;SDS011;65441;44.748;37.600;2023-04-01T12:23:16;2.28;;;0.60;;
76576;SDS011;65441;44.748;37.600;2023-04-01T12:26:05;1.98;;;0.77;;
76576;SDS011;65441;44.748;37.600;2023-04-01T12:28:53;3.70;;;0.50;;
76576;SDS011;65441;44.748;37.600;2023-04-01T12:31:38;9.82;;;0.90;;
76576;SDS011;65441;44.748;37.600;2023-04-01T12:34:39;5.32;;;0.80;;
76576;SDS011;65441;44.748;37.600;2023-04-01T12:37:27;2.17;;;0.50;;
76576;SDS011;65441;44.748;37.600;2023-04-01T12:40:18;3.25;;;0.50;;
76576;SDS011;65441;44.748;37.600;2023-04-01T12:43:02;1.35;;;0.40;;
76576;SDS011;65441;44.748;37.600;2023-04-01T12:45:48;2.30;;;0.50;;
76576;SDS011;65441;44.748;37.600;2023-04-01T12:48:27;0.90;;;0.40;;
76576;SDS011;65441;44.748;37.600;2023-04-01T12:51:28;2.60;;;0.60;;
76576;SDS011;65441;44.748;37.600;2023-04-01T12:57:28;3.75;;;0.73;;
76576;SDS011;65441;44.748;37.600;2023-04-01T13:02:59;1.58;;;0.45;;
76576;SDS011;65441;44.748;37.600;2023-04-01T13:05:55;2.65;;;0.77;;
76576;SDS011;65441;44.748;37.600;2023-04-01T13:08:42;3.53;;;0.88;;
76576;SDS011;65441;44.748;37.600;2023-04-01T13:11:18;3.75;;;0.80;;
76576;SDS011;65441;44.748;37.600;2023-04-01T13:14:00;2.08;;;0.50;;
76576;SDS011;65441;44.748;37.600;2023-04-01T13:16:46;2.85;;;0.52;;
76576;SDS011;65441;44.748;37.600;2023-04-01T13:19:24;1.98;;;0.50;;
76576;SDS011;65441;44.748;37.600;2023-04-01T13:22:01;4.38;;;0.47;;
76576;SDS011;65441;44.748;37.600;2023-04-01T13:24:39;1.25;;;0.40;;
76576;SDS011;65441;44.748;37.600;2023-04-01T13:27:14;3.75;;;0.50;;
76576;SDS011;65441;44.748;37.600;2023-04-01T13:29:55;4.45;;;1.02;;
76576;SDS011;65441;44.748;37.600;2023-04-01T13:32:32;2.15;;;0.60;;
76576;SDS011;65441;44.748;37.600;2023-04-01T13:35:18;2.30;;;0.57;;
76576;SDS011;65441;44.748;37.600;2023-04-01T13:37:56;4.57;;;0.60;;
76576;SDS011;65441;44.748;37.600;2023-04-01T13:40:38;4.10;;;0.90;;
76576;SDS011;65441;44.748;37.600;2023-04-01T13:43:13;1.13;;;0.32;;
76576;SDS011;65441;44.748;37.600;2023-04-01T13:45:53;3.78;;;0.40;;
76576;SDS011;65441;44.748;37.600;2023-04-01T13:48:41;2.90;;;0.90;;
76576;SDS011;65441;44.748;37.600;2023-04-01T13:57:33;1.95;;;0.40;;
76576;SDS011;65441;44.748;37.600;2023-04-01T14:03:13;6.53;;;0.57;;
76576;SDS011;65441;44.748;37.600;2023-04-01T14:08:51;1.17;;;0.50;;
76576;SDS011;65441;44.748;37.600;2023-04-01T14:11:42;5.45;;;0.95;;
76576;SDS011;65441;44.748;37.600;2023-04-01T14:14:21;4.80;;;0.60;;
76576;SDS011;65441;44.748;37.600;2023-04-01T14:17:07;2.97;;;0.52;;
76576;SDS011;65441;44.748;37.600;2023-04-01T14:25:52;1.95;;;0.55;;
76576;SDS011;65441;44.748;37.600;2023-04-01T14:28:32;3.22;;;0.75;;
76576;SDS011;65441;44.748;37.600;2023-04-01T14:31:29;7.00;;;0.95;;
76576;SDS011;65441;44.748;37.600;2023-04-01T14:34:20;2.25;;;0.50;;
76576;SDS011;65441;44.748;37.600;2023-04-01T14:37:01;5.97;;;0.93;;
76576;SDS011;65441;44.748;37.600;2023-04-01T14:39:53;2.60;;;0.65;;
76576;SDS011;65441;44.748;37.600;2023-04-01T14:42:45;1.48;;;0.40;;
76576;SDS011;65441;44.748;37.600;2023-04-01T14:45:44;7.05;;;0.60;;
76576;SDS011;65441;44.748;37.600;2023-04-01T14:48:25;3.30;;;0.70;;
76576;SDS011;65441;44.748;37.600;2023-04-01T14:51:03;2.05;;;0.47;;
76576;SDS011;65441;44.748;37.600;2023-04-01T14:53:38;2.72;;;0.57;;
76576;SDS011;65441;44.748;37.600;2023-04-01T14:56:12;5.18;;;0.90;;
76576;SDS011;65441;44.748;37.600;2023-04-01T14:59:01;4.63;;;0.80;;
76576;SDS011;65441;44.748;37.600;2023-04-01T15:01:36;4.90;;;1.08;;
76576;SDS011;65441;44.748;37.600;2023-04-01T15:04:20;5.03;;;0.70;;
76576;SDS011;65441;44.748;37.600;2023-04-01T15:07:21;4.60;;;0.60;;
76576;SDS011;65441;44.748;37.600;2023-04-01T15:12:55;5.20;;;0.90;;
76576;SDS011;65441;44.748;37.600;2023-04-01T15:15:35;3.92;;;0.63;;
76576;SDS011;65441;44.748;37.600;2023-04-01T15:18:16;1.85;;;0.50;;
76576;SDS011;65441;44.748;37.600;2023-04-01T15:23:49;5.95;;;1.05;;
76576;SDS011;65441;44.748;37.600;2023-04-01T15:26:33;2.45;;;0.70;;
76576;SDS011;65441;44.748;37.600;2023-04-01T15:32:36;7.57;;;1.15;;
76576;SDS011;65441;44.748;37.600;2023-04-01T15:35:21;2.15;;;0.60;;
76576;SDS011;65441;44.748;37.600;2023-04-01T15:38:04;4.53;;;1.00;;
76576;SDS011;65441;44.748;37.600;2023-04-01T15:40:42;5.53;;;1.27;;
76576;SDS011;65441;44.748;37.600;2023-04-01T15:43:21;5.03;;;1.00;;
76576;SDS011;65441;44.748;37.600;2023-04-01T15:46:09;3.45;;;0.82;;
76576;SDS011;65441;44.748;37.600;2023-04-01T15:52:11;4.72;;;0.60;;
76576;SDS011;65441;44.748;37.600;2023-04-01T15:54:50;7.35;;;0.77;;
76576;SDS011;65441;44.748;37.600;2023-04-01T15:57:29;2.33;;;0.90;;
76576;SDS011;65441;44.748;37.600;2023-04-01T16:00:09;0.52;;;0.30;;
76576;SDS011;65441;44.748;37.600;2023-04-01T16:02:51;8.50;;;1.00;;
76576;SDS011;65441;44.748;37.600;2023-04-01T16:05:37;4.03;;;0.60;;
76576;SDS011;65441;44.748;37.600;2023-04-01T16:11:18;3.10;;;0.73;;
76576;SDS011;65441;44.748;37.600;2023-04-01T16:13:56;4.60;;;0.80;;
76576;SDS011;65441;44.748;37.600;2023-04-01T16:16:40;2.78;;;0.68;;
76576;SDS011;65441;44.748;37.600;2023-04-01T16:19:23;2.38;;;0.63;;
76576;SDS011;65441;44.748;37.600;2023-04-01T16:22:01;2.65;;;0.90;;
76576;SDS011;65441;44.748;37.600;2023-04-01T16:24:37;1.15;;;0.52;;
76576;SDS011;65441;44.748;37.600;2023-04-01T16:27:11;1.73;;;0.55;;
76576;SDS011;65441;44.748;37.600;2023-04-01T16:29:46;3.13;;;0.80;;
76576;SDS011;65441;44.748;37.600;2023-04-01T16:32:19;2.25;;;0.70;;
76576;SDS011;65441;44.748;37.600;2023-04-01T16:35:05;3.50;;;0.70;;
76576;SDS011;65441;44.748;37.600;2023-04-01T16:37:49;47.42;;;10.88;;
76576;SDS011;65441;44.748;37.600;2023-04-01T16:40:26;22.42;;;6.32;;
76576;SDS011;65441;44.748;37.600;2023-04-01T16:43:09;7.40;;;1.77;;
76576;SDS011;65441;44.748;37.600;2023-04-01T16:45:42;36.13;;;11.27;;
76576;SDS011;65441;44.748;37.600;2023-04-01T16:48:20;65.45;;;19.95;;
76576;SDS011;65441;44.748;37.600;2023-04-01T16:50:58;50.85;;;16.45;;
76576;SDS011;65441;44.748;37.600;2023-04-01T16:53:34;14.40;;;4.63;;
76576;SDS011;65441;44.748;37.600;2023-04-01T16:56:12;24.40;;;7.50;;
76576;SDS011;65441;44.748;37.600;2023-04-01T16:58:54;18.42;;;6.03;;
76576;SDS011;65441;44.748;37.600;2023-04-01T17:01:29;42.47;;;17.45;;
76576;SDS011;65441;44.748;37.600;2023-04-01T17:04:12;10.13;;;2.22;;
76576;SDS011;65441;44.748;37.600;2023-04-01T17:06:48;24.92;;;8.13;;
76576;SDS011;65441;44.748;37.600;2023-04-01T17:09:28;5.03;;;1.48;;
76576;SDS011;65441;44.748;37.600;2023-04-01T17:12:11;2.85;;;0.68;;
76576;SDS011;65441;44.748;37.600;2023-04-01T17:14:46;7.22;;;1.50;;
76576;SDS011;65441;44.748;37.600;2023-04-01T17:17:29;3.88;;;1.30;;
76576;SDS011;65441;44.748;37.600;2023-04-01T17:20:12;22.63;;;10.18;;
76576;SDS011;65441;44.748;37.600;2023-04-01T17:22:57;16.60;;;6.95;;
76576;SDS011;65441;44.748;37.600;2023-04-01T17:25:34;3.70;;;1.20;;
76576;SDS011;65441;44.748;37.600;2023-04-01T17:28:25;12.07;;;5.85;;
76576;SDS011;65441;44.748;37.600;2023-04-01T17:31:05;10.38;;;4.07;;
76576;SDS011;65441;44.748;37.600;2023-04-01T17:33:51;5.97;;;1.65;;
76576;SDS011;65441;44.748;37.600;2023-04-01T17:36:36;4.25;;;1.30;;
76576;SDS011;65441;44.748;37.600;2023-04-01T17:39:22;3.42;;;1.10;;
76576;SDS011;65441;44.748;37.600;2023-04-01T17:42:09;4.50;;;1.10;;
76576;SDS011;65441;44.748;37.600;2023-04-01T17:44:49;5.45;;;1.17;;
76576;SDS011;65441;44.748;37.600;2023-04-01T17:50:22;1.55;;;0.40;;
76576;SDS011;65441;44.748;37.600;2023-04-01T17:52:59;3.78;;;0.70;;
76576;SDS011;65441;44.748;37.600;2023-04-01T17:55:43;5.43;;;0.75;;
76576;SDS011;65441;44.748;37.600;2023-04-01T17:58:27;1.67;;;0.70;;